Terminal Aerodrome Forecast
Issued by NWS Sterling, VA

Home | Current Version | Previous Version | Text Only | Print | Product List | Glossary On
Versions: 1 2 3 4 5 6 7 8 9 10 11 12 13
407
FTUS41 KLWX 010527
TAFCHO
TAF
KCHO 010527Z 0106/0206 19009KT P6SM SCT030 BKN110
     FM010800 19010KT P6SM BKN020 BKN030
     FM011200 19013G20KT P6SM BKN020 BKN030
     FM011800 19014G25KT P6SM -SHRA VCTS OVC025CB
     FM020300 21012G20KT P6SM BKN250=

USA.gov is the U.S. government's official web portal to all federal, state and local government web resources and services.